createdAt,value
2019-03-10T00:00:41.865Z,11.87
2019-03-10T00:03:11.815Z,10.50
2019-03-10T00:05:40.514Z,13.93
2019-03-10T00:08:09.301Z,10.43
2019-03-10T00:10:37.988Z,10.43
2019-03-10T00:13:06.791Z,12.97
2019-03-10T00:15:35.599Z,9.03
2019-03-10T00:18:04.412Z,12.90
2019-03-10T00:20:35.148Z,9.33
2019-03-10T00:23:03.690Z,13.43
2019-03-10T00:25:36.989Z,9.07
2019-03-10T00:28:07.108Z,10.23
2019-03-10T00:30:35.822Z,12.03
2019-03-10T00:33:04.696Z,11.17
2019-03-10T00:35:33.527Z,10.07
2019-03-10T00:38:02.301Z,10.60
2019-03-10T00:41:06.899Z,13.13
2019-03-10T00:44:12.116Z,10.53
2019-03-10T00:47:06.116Z,7.90
2019-03-10T00:49:44.667Z,9.03
2019-03-10T00:52:22.508Z,7.67
2019-03-10T00:54:51.715Z,8.00
2019-03-10T00:57:20.310Z,7.53
2019-03-10T00:59:49.020Z,9.60
2019-03-10T01:02:17.730Z,7.33
2019-03-10T01:04:46.357Z,8.30
2019-03-10T01:07:15.061Z,7.37
2019-03-10T01:09:45.346Z,6.37
2019-03-10T01:12:14.161Z,8.27
2019-03-10T01:14:44.971Z,8.43
2019-03-10T01:17:14.783Z,6.00
2019-03-10T01:19:44.911Z,8.33
2019-03-10T01:22:15.644Z,4.10
2019-03-10T01:24:46.600Z,3.93
2019-03-10T01:27:15.376Z,3.83
2019-03-10T01:29:46.286Z,1.90
2019-03-10T01:32:29.789Z,2.40
2019-03-10T01:35:16.547Z,3.37
2019-03-10T01:37:45.536Z,1.07
2019-03-10T01:40:14.253Z,3.00
2019-03-10T01:42:43.772Z,2.07
2019-03-10T01:45:13.564Z,3.00
2019-03-10T01:47:42.371Z,3.23
2019-03-10T01:50:14.227Z,3.97
2019-03-10T01:52:42.867Z,2.53
2019-03-10T01:55:13.909Z,3.60
2019-03-10T01:57:42.576Z,4.00
2019-03-10T02:00:14.533Z,2.77
2019-03-10T02:02:43.833Z,7.23
2019-03-10T02:05:13.801Z,2.83
2019-03-10T02:07:43.325Z,5.43
2019-03-10T02:10:12.772Z,3.27
2019-03-10T02:12:41.426Z,3.27
2019-03-10T02:15:13.024Z,3.20
2019-03-10T02:17:41.936Z,3.57
2019-03-10T02:20:17.848Z,5.30
2019-03-10T02:22:46.601Z,3.13
2019-03-10T02:25:16.990Z,3.60
2019-03-10T02:27:45.914Z,4.00
2019-03-10T02:30:17.032Z,3.27
2019-03-10T02:32:47.907Z,5.10
2019-03-10T02:35:17.310Z,3.80
2019-03-10T02:37:46.093Z,4.57
2019-03-10T02:40:17.538Z,3.13
2019-03-10T02:42:47.548Z,3.47
2019-03-10T02:45:17.858Z,6.07
2019-03-10T02:47:46.440Z,3.20
2019-03-10T02:50:15.131Z,1.57
2019-03-10T02:52:43.743Z,5.97
2019-03-10T02:55:14.456Z,6.00
2019-03-10T02:57:44.805Z,4.33
2019-03-10T03:00:14.096Z,6.40
2019-03-10T03:02:43.184Z,2.40
2019-03-10T03:05:12.647Z,2.57
2019-03-10T03:07:41.404Z,11.57
2019-03-10T03:10:14.471Z,1.37
2019-03-10T03:12:43.168Z,0.80
2019-03-10T03:15:12.528Z,1.57
2019-03-10T03:17:42.899Z,3.53
2019-03-10T03:20:15.052Z,2.83
2019-03-10T03:22:45.529Z,3.67
2019-03-10T03:25:14.190Z,2.10
2019-03-10T03:27:43.301Z,5.73
2019-03-10T03:30:16.060Z,4.47
2019-03-10T03:32:44.887Z,12.07
2019-03-10T03:35:48.488Z,2.90
2019-03-10T03:38:23.184Z,3.73
2019-03-10T03:41:03.967Z,5.53
2019-03-10T03:43:32.879Z,4.97
2019-03-10T03:46:01.819Z,8.67
2019-03-10T03:48:30.480Z,0.90
2019-03-10T03:50:59.300Z,7.60
2019-03-10T03:53:28.128Z,5.57
2019-03-10T03:55:56.977Z,4.60
2019-03-10T03:58:32.770Z,12.17
2019-03-10T04:00:58.735Z,1.97
2019-03-10T04:03:28.592Z,3.03
2019-03-10T04:05:57.370Z,4.27
2019-03-10T04:08:26.098Z,6.10
2019-03-10T04:10:55.093Z,5.57
2019-03-10T04:13:25.192Z,6.60
2019-03-10T04:15:54.889Z,6.77
2019-03-10T04:18:23.520Z,4.77
2019-03-10T04:20:55.347Z,4.30
2019-03-10T04:23:24.106Z,5.80
2019-03-10T04:25:52.843Z,6.87
2019-03-10T04:28:21.390Z,5.50
2019-03-10T04:30:50.150Z,7.07
2019-03-10T04:33:22.671Z,4.10
2019-03-10T04:35:59.241Z,6.33
2019-03-10T04:38:28.074Z,9.37
2019-03-10T04:40:56.815Z,5.83
2019-03-10T04:43:27.201Z,8.93
2019-03-10T04:45:58.759Z,5.83
2019-03-10T04:48:28.305Z,6.40
2019-03-10T04:50:58.346Z,7.80
2019-03-10T04:53:27.096Z,5.93
2019-03-10T04:55:59.433Z,8.93
2019-03-10T04:58:28.145Z,11.27
2019-03-10T05:01:04.865Z,6.40
2019-03-10T05:03:34.758Z,7.67
2019-03-10T05:06:03.492Z,12.83
2019-03-10T05:08:36.661Z,10.47
2019-03-10T05:11:02.846Z,8.17
2019-03-10T05:13:31.912Z,7.33
2019-03-10T05:16:01.176Z,8.97
2019-03-10T05:18:29.793Z,9.67
2019-03-10T05:20:59.940Z,5.97
2019-03-10T05:23:32.522Z,7.10
2019-03-10T05:26:01.288Z,10.63
2019-03-10T05:28:33.399Z,8.40
2019-03-10T05:31:02.433Z,8.80
2019-03-10T05:33:31.498Z,8.97
2019-03-10T05:36:00.551Z,8.00
2019-03-10T05:38:33.429Z,6.97
2019-03-10T05:41:02.297Z,6.93
2019-03-10T05:43:33.604Z,9.17
2019-03-10T05:46:03.671Z,10.43
2019-03-10T05:48:34.340Z,10.10
2019-03-10T05:51:03.091Z,12.57
2019-03-10T05:53:32.958Z,7.17
2019-03-10T05:56:02.330Z,8.17
2019-03-10T05:58:32.563Z,8.23
2019-03-10T06:01:02.745Z,5.13
2019-03-10T06:03:33.852Z,5.17
2019-03-10T06:06:02.531Z,7.23
2019-03-10T06:08:31.454Z,7.40
2019-03-10T06:11:00.087Z,4.47
2019-03-10T06:13:28.796Z,5.17
2019-03-10T06:15:57.472Z,4.77
2019-03-10T06:18:27.108Z,5.73
2019-03-10T06:20:55.976Z,9.63
2019-03-10T06:23:24.560Z,8.50
2019-03-10T06:25:53.255Z,7.20
2019-03-10T06:28:25.769Z,8.20
2019-03-10T06:30:56.337Z,4.50
2019-03-10T06:33:24.849Z,9.47
2019-03-10T06:35:53.958Z,4.63
2019-03-10T06:38:23.700Z,4.10
2019-03-10T06:40:52.817Z,3.83
2019-03-10T06:43:21.831Z,11.40
2019-03-10T06:45:51.960Z,7.73
2019-03-10T06:48:25.663Z,8.37
2019-03-10T06:50:54.484Z,6.73
2019-03-10T06:53:23.241Z,5.70
2019-03-10T06:55:52.040Z,7.80
2019-03-10T06:58:21.594Z,6.50
2019-03-10T07:00:50.314Z,7.23
2019-03-10T07:03:19.015Z,5.80
2019-03-10T07:05:48.012Z,7.77
2019-03-10T07:08:16.897Z,6.67
2019-03-10T07:10:45.599Z,4.40
2019-03-10T07:13:14.382Z,6.97
2019-03-10T07:15:43.147Z,8.20
2019-03-10T07:18:11.799Z,4.63
2019-03-10T07:20:40.506Z,6.10
2019-03-10T07:23:10.841Z,6.43
2019-03-10T07:25:39.675Z,8.77
2019-03-10T07:28:10.128Z,9.37
2019-03-10T07:30:55.471Z,9.50
2019-03-10T07:33:34.700Z,8.27
2019-03-10T07:36:17.173Z,6.17
2019-03-10T07:38:56.485Z,6.53
2019-03-10T07:41:29.276Z,9.60
2019-03-10T07:44:04.901Z,4.50
2019-03-10T07:46:38.028Z,11.03
2019-03-10T07:49:24.394Z,9.07
2019-03-10T07:52:03.377Z,5.77
2019-03-10T07:54:45.841Z,6.60
2019-03-10T07:57:25.274Z,5.27
2019-03-10T08:00:10.994Z,8.70
2019-03-10T08:02:52.924Z,6.97
2019-03-10T08:05:23.372Z,3.43
2019-03-10T08:07:59.615Z,7.90
2019-03-10T08:10:46.049Z,5.50
2019-03-10T08:13:18.981Z,4.73
2019-03-10T08:16:04.914Z,8.43
2019-03-10T08:18:42.715Z,6.67
2019-03-10T08:21:18.927Z,7.73
2019-03-10T08:24:05.151Z,4.77
2019-03-10T08:26:56.425Z,4.97
2019-03-10T08:29:33.716Z,4.23
2019-03-10T08:32:11.207Z,4.83
2019-03-10T08:34:44.441Z,10.73
2019-03-10T08:37:27.093Z,6.20
2019-03-10T08:40:13.451Z,5.30
2019-03-10T08:42:53.564Z,6.70
2019-03-10T08:45:23.936Z,5.90
2019-03-10T08:48:00.380Z,6.77
2019-03-10T08:50:33.735Z,4.57
2019-03-10T08:53:13.833Z,7.40
2019-03-10T08:55:47.025Z,3.53
2019-03-10T08:58:27.708Z,5.40
2019-03-10T09:01:13.499Z,5.53
2019-03-10T09:03:46.668Z,10.97
2019-03-10T09:06:32.562Z,9.23
2019-03-10T09:09:11.794Z,7.30
2019-03-10T09:11:54.289Z,5.67
2019-03-10T09:14:27.300Z,7.27
2019-03-10T09:17:00.486Z,5.50
2019-03-10T09:19:32.866Z,9.53
2019-03-10T09:22:07.148Z,4.20
2019-03-10T09:24:53.499Z,3.43
2019-03-10T09:27:35.926Z,10.27
2019-03-10T09:30:20.914Z,5.43
2019-03-10T09:32:51.818Z,5.43
2019-03-10T09:35:26.146Z,7.83
2019-03-10T09:37:59.761Z,6.70
2019-03-10T09:40:42.152Z,5.57
2019-03-10T09:43:23.684Z,7.40
2019-03-10T09:45:56.556Z,5.87
2019-03-10T09:48:30.614Z,6.00
2019-03-10T09:51:03.929Z,5.23
2019-03-10T09:53:54.757Z,10.97
2019-03-10T09:56:27.859Z,4.57
2019-03-10T09:59:04.600Z,6.50
2019-03-10T10:01:35.890Z,4.43
2019-03-10T10:04:13.415Z,6.70
2019-03-10T10:06:53.877Z,5.73
2019-03-10T10:09:37.135Z,8.23
2019-03-10T10:12:23.719Z,4.27
2019-03-10T10:15:00.345Z,6.20
2019-03-10T10:17:34.671Z,9.67
2019-03-10T10:20:06.689Z,3.83
2019-03-10T10:22:49.457Z,4.77
2019-03-10T10:25:28.838Z,2.53
2019-03-10T10:27:59.173Z,5.97
2019-03-10T10:30:47.825Z,3.40
2019-03-10T10:33:20.651Z,5.07
2019-03-10T10:35:56.845Z,2.73
2019-03-10T10:38:34.868Z,6.87
2019-03-10T10:41:05.356Z,5.10
2019-03-10T10:43:37.143Z,7.53
2019-03-10T10:46:16.396Z,4.33
2019-03-10T10:48:52.727Z,5.30
2019-03-10T10:51:32.080Z,7.30
2019-03-10T10:54:02.520Z,10.30
2019-03-10T10:56:39.031Z,6.83
2019-03-10T10:59:12.527Z,6.37
2019-03-10T11:01:49.442Z,4.20
2019-03-10T11:04:22.524Z,9.50
2019-03-10T11:07:09.556Z,8.03
2019-03-10T11:09:47.326Z,4.70
2019-03-10T11:12:17.739Z,5.83
2019-03-10T11:14:48.002Z,5.30
2019-03-10T11:17:33.271Z,7.33
2019-03-10T11:20:09.661Z,8.40
2019-03-10T11:22:40.037Z,5.97
2019-03-10T11:25:10.519Z,9.50
2019-03-10T11:27:56.717Z,3.73
2019-03-10T11:30:38.775Z,1.93
2019-03-10T11:33:27.515Z,6.40
2019-03-10T11:36:00.348Z,7.40
2019-03-10T11:38:30.625Z,5.60
2019-03-10T11:41:10.069Z,6.07
2019-03-10T11:43:40.493Z,7.30
2019-03-10T11:46:28.120Z,7.47
2019-03-10T11:48:59.608Z,6.03
2019-03-10T11:51:38.702Z,4.47
2019-03-10T11:54:26.879Z,5.03
2019-03-10T11:57:04.140Z,7.87
2019-03-10T11:59:43.596Z,5.93
2019-03-10T12:02:18.780Z,8.87
2019-03-10T12:04:50.710Z,4.63
2019-03-10T12:07:23.983Z,7.17
2019-03-10T12:09:52.850Z,7.03
2019-03-10T12:12:23.147Z,7.60
2019-03-10T12:14:51.948Z,11.07
2019-03-10T12:17:21.421Z,8.33
2019-03-10T12:19:50.138Z,6.80
2019-03-10T12:22:20.175Z,9.17
2019-03-10T12:24:48.995Z,7.33
2019-03-10T12:27:19.467Z,8.43
2019-03-10T12:29:48.614Z,5.97
2019-03-10T12:32:18.880Z,8.20
2019-03-10T12:34:47.788Z,7.07
2019-03-10T12:37:17.159Z,7.50
2019-03-10T12:39:47.506Z,5.73
2019-03-10T12:42:19.211Z,9.53
2019-03-10T12:44:47.885Z,8.07
2019-03-10T12:47:17.209Z,9.47
2019-03-10T12:49:46.080Z,6.07
2019-03-10T12:52:15.926Z,6.67
2019-03-10T12:54:44.716Z,4.57
2019-03-10T12:57:14.224Z,5.03
2019-03-10T12:59:43.091Z,6.27
2019-03-10T13:02:13.328Z,7.97
2019-03-10T13:04:41.988Z,6.13
2019-03-10T13:07:10.835Z,8.47
2019-03-10T13:09:39.665Z,5.27
2019-03-10T13:12:08.432Z,8.53
2019-03-10T13:14:37.182Z,5.40
2019-03-10T13:17:06.380Z,13.37
2019-03-10T13:19:35.190Z,7.33
2019-03-10T13:22:04.033Z,8.03
2019-03-10T13:24:32.736Z,6.00
2019-03-10T13:27:01.567Z,6.93
2019-03-10T13:29:30.480Z,8.73
2019-03-10T13:31:59.186Z,7.90
2019-03-10T13:34:29.833Z,9.00
2019-03-10T13:37:00.179Z,9.80
2019-03-10T13:39:28.978Z,8.37
2019-03-10T13:41:59.221Z,8.90
2019-03-10T13:44:28.992Z,7.40
2019-03-10T13:46:58.196Z,7.70
2019-03-10T13:49:26.907Z,11.90
2019-03-10T13:51:55.599Z,8.13
2019-03-10T13:54:24.344Z,8.97
2019-03-10T13:56:53.167Z,6.67
2019-03-10T13:59:22.019Z,10.20
2019-03-10T14:01:51.406Z,8.80
2019-03-10T14:04:20.071Z,5.97
2019-03-10T14:06:49.005Z,5.47
2019-03-10T14:09:18.087Z,7.83
2019-03-10T14:11:49.159Z,7.83
2019-03-10T14:14:17.847Z,7.50
2019-03-10T14:16:48.036Z,11.33
2019-03-10T14:19:16.730Z,5.50
2019-03-10T14:21:45.518Z,4.00
2019-03-10T14:24:14.633Z,7.67
2019-03-10T14:26:44.344Z,7.33
2019-03-10T14:29:15.936Z,5.73
2019-03-10T14:31:44.886Z,5.70
2019-03-10T14:34:14.402Z,5.60
2019-03-10T14:36:43.268Z,6.30
2019-03-10T14:39:12.762Z,9.13
2019-03-10T14:41:41.591Z,7.53
2019-03-10T14:44:12.091Z,3.80
2019-03-10T14:46:42.066Z,5.23
2019-03-10T14:49:22.616Z,7.03
2019-03-10T14:51:41.870Z,9.77
2019-03-10T14:54:10.856Z,7.97
2019-03-10T14:56:40.955Z,9.70
2019-03-10T14:59:11.113Z,5.77
2019-03-10T15:01:39.895Z,6.53
2019-03-10T15:04:09.824Z,6.37
2019-03-10T15:06:39.679Z,8.20
2019-03-10T15:09:10.114Z,8.37
2019-03-10T15:11:38.872Z,5.80
2019-03-10T15:14:08.155Z,6.73
2019-03-10T15:16:36.927Z,7.60
2019-03-10T15:19:07.029Z,8.60
2019-03-10T15:21:35.818Z,6.63
2019-03-10T15:24:04.746Z,7.80
2019-03-10T15:26:44.874Z,6.67
2019-03-10T15:29:06.829Z,7.60
2019-03-10T15:31:35.503Z,7.97
2019-03-10T15:34:04.444Z,4.83
2019-03-10T15:36:33.197Z,6.70
2019-03-10T15:39:01.868Z,9.53
2019-03-10T15:41:32.085Z,6.07
2019-03-10T15:44:03.588Z,5.97
2019-03-10T15:46:34.187Z,4.67
2019-03-10T15:49:05.513Z,5.13
2019-03-10T15:51:35.251Z,6.70
2019-03-10T15:54:05.973Z,8.93
2019-03-10T15:56:37.193Z,8.63
2019-03-10T15:59:07.727Z,8.97
2019-03-10T16:01:36.419Z,6.07
2019-03-10T16:04:16.671Z,7.90
2019-03-10T16:06:45.775Z,12.97
2019-03-10T16:09:14.615Z,4.97
2019-03-10T16:11:43.485Z,6.07
2019-03-10T16:14:12.248Z,6.57
2019-03-10T16:16:41.007Z,10.83
2019-03-10T16:19:09.949Z,10.97
2019-03-10T16:21:38.673Z,11.83
2019-03-10T16:24:07.444Z,8.47
2019-03-10T16:26:36.284Z,7.17
2019-03-10T16:29:08.997Z,7.60
2019-03-10T16:31:38.565Z,7.87
2019-03-10T16:34:10.260Z,8.37
2019-03-10T16:36:40.535Z,4.97
2019-03-10T16:39:11.242Z,7.70
2019-03-10T16:41:40.009Z,7.30
2019-03-10T16:44:11.305Z,8.17
2019-03-10T16:46:40.161Z,7.63
2019-03-10T16:49:10.053Z,7.33
2019-03-10T16:51:38.765Z,7.30
2019-03-10T16:54:09.683Z,10.33
2019-03-10T16:56:40.837Z,4.97
2019-03-10T16:59:10.789Z,8.43
2019-03-10T17:01:39.677Z,7.07
2019-03-10T17:04:10.773Z,8.13
2019-03-10T17:06:42.189Z,4.07
2019-03-10T17:09:15.978Z,8.30
2019-03-10T17:11:45.193Z,5.20
2019-03-10T17:14:15.439Z,7.70
2019-03-10T17:16:45.133Z,10.13
2019-03-10T17:19:16.058Z,9.10
2019-03-10T17:21:44.739Z,7.70
2019-03-10T17:24:13.504Z,6.47
2019-03-10T17:26:42.255Z,8.10
2019-03-10T17:29:12.754Z,9.77
2019-03-10T17:31:42.967Z,8.57
2019-03-10T17:34:11.756Z,9.17
2019-03-10T17:36:41.599Z,8.63
2019-03-10T17:39:13.186Z,7.70
2019-03-10T17:41:41.969Z,8.97
2019-03-10T17:44:13.632Z,8.93
2019-03-10T17:46:45.472Z,11.87
2019-03-10T17:49:14.150Z,9.47
2019-03-10T17:51:43.459Z,7.80
2019-03-10T17:54:12.237Z,19.57
2019-03-10T17:56:42.685Z,8.10
2019-03-10T17:59:11.735Z,16.77
2019-03-10T18:01:40.793Z,7.33
2019-03-10T18:04:09.510Z,8.23
2019-03-10T18:06:38.246Z,6.73
2019-03-10T18:09:07.805Z,10.03
2019-03-10T18:11:37.116Z,10.70
2019-03-10T18:14:05.907Z,9.20
2019-03-10T18:16:36.296Z,11.83
2019-03-10T18:19:06.351Z,11.30
2019-03-10T18:21:35.062Z,13.63
2019-03-10T18:24:03.867Z,13.43
2019-03-10T18:26:33.298Z,11.57
2019-03-10T18:29:03.175Z,19.07
2019-03-10T18:31:33.569Z,16.07
2019-03-10T18:34:02.209Z,10.73
2019-03-10T18:36:30.878Z,12.43
2019-03-10T18:38:59.705Z,14.73
2019-03-10T18:41:28.569Z,17.63
2019-03-10T18:44:04.102Z,14.87
2019-03-10T18:46:27.956Z,14.03
2019-03-10T18:48:57.616Z,13.00
2019-03-10T18:51:26.282Z,20.53
2019-03-10T18:53:55.149Z,16.37
2019-03-10T18:56:25.157Z,18.23
2019-03-10T18:58:56.492Z,19.23
2019-03-10T19:01:25.985Z,17.07
2019-03-10T19:03:56.477Z,16.70
2019-03-10T19:06:25.225Z,19.60
2019-03-10T19:08:56.796Z,19.90
2019-03-10T19:11:25.741Z,17.70
2019-03-10T19:13:54.544Z,18.10
2019-03-10T19:16:23.487Z,19.93
2019-03-10T19:18:54.939Z,23.30
2019-03-10T19:21:24.391Z,17.03
2019-03-10T19:23:54.125Z,15.47
2019-03-10T19:26:22.889Z,19.73
2019-03-10T19:28:53.061Z,19.33
2019-03-10T19:31:23.213Z,20.70
2019-03-10T19:33:53.012Z,19.17
2019-03-10T19:36:23.277Z,20.23
2019-03-10T19:38:52.725Z,19.27
2019-03-10T19:41:21.568Z,21.87
2019-03-10T19:43:51.861Z,17.23
2019-03-10T19:46:20.549Z,22.40
2019-03-10T19:48:51.177Z,20.93
2019-03-10T19:51:20.530Z,22.50
2019-03-10T19:53:49.331Z,17.10
2019-03-10T19:56:18.110Z,18.40
2019-03-10T19:58:46.794Z,24.20
2019-03-10T20:01:15.599Z,22.53
2019-03-10T20:03:44.446Z,23.27
2019-03-10T20:06:13.376Z,22.07
2019-03-10T20:08:45.861Z,22.97
2019-03-10T20:11:15.819Z,26.43
2019-03-10T20:13:46.446Z,23.63
2019-03-10T20:16:15.705Z,24.17
2019-03-10T20:18:46.153Z,24.50
2019-03-10T20:21:14.877Z,23.60
2019-03-10T20:23:43.596Z,26.93
2019-03-10T20:26:12.454Z,19.67
2019-03-10T20:28:41.087Z,21.57
2019-03-10T20:31:09.933Z,24.43
2019-03-10T20:33:41.323Z,20.87
2019-03-10T20:36:09.954Z,18.50
2019-03-10T20:38:38.692Z,20.13
2019-03-10T20:41:08.030Z,21.77
2019-03-10T20:43:37.401Z,23.17
2019-03-10T20:46:06.678Z,22.30
2019-03-10T20:48:35.410Z,21.47
2019-03-10T20:51:05.322Z,21.73
2019-03-10T20:53:34.805Z,20.57
2019-03-10T20:56:03.610Z,22.43
2019-03-10T20:58:34.782Z,21.80
2019-03-10T21:01:05.852Z,27.30
2019-03-10T21:03:34.579Z,23.03
2019-03-10T21:06:03.204Z,24.73
2019-03-10T21:08:31.953Z,23.97
2019-03-10T21:11:06.327Z,29.73
2019-03-10T21:13:30.960Z,28.13
2019-03-10T21:16:02.920Z,25.57
2019-03-10T21:18:33.059Z,29.43
2019-03-10T21:21:01.844Z,26.00
2019-03-10T21:23:31.374Z,25.87
2019-03-10T21:26:01.590Z,30.10
2019-03-10T21:28:30.755Z,31.67
2019-03-10T21:30:59.554Z,31.63
2019-03-10T21:33:28.297Z,34.27
2019-03-10T21:35:56.949Z,30.87
2019-03-10T21:38:28.376Z,36.30
2019-03-10T21:40:57.217Z,34.20
2019-03-10T21:43:26.957Z,31.00
2019-03-10T21:45:55.772Z,31.13
2019-03-10T21:48:24.563Z,31.33
2019-03-10T21:50:53.463Z,28.83
2019-03-10T21:53:23.185Z,25.83
2019-03-10T21:55:54.812Z,27.50
2019-03-10T21:58:23.434Z,24.07
2019-03-10T22:00:53.535Z,23.50
2019-03-10T22:03:22.915Z,28.83
2019-03-10T22:05:51.846Z,25.23
2019-03-10T22:08:20.685Z,28.00
2019-03-10T22:10:49.473Z,29.47
2019-03-10T22:13:18.098Z,27.97
2019-03-10T22:15:47.765Z,29.97
2019-03-10T22:18:17.619Z,30.27
2019-03-10T22:20:46.175Z,33.83
2019-03-10T22:23:15.858Z,29.53
2019-03-10T22:25:44.559Z,29.63
2019-03-10T22:28:13.176Z,29.73
2019-03-10T22:30:42.006Z,28.87
2019-03-10T22:33:10.691Z,31.23
2019-03-10T22:35:39.422Z,29.47
2019-03-10T22:38:08.172Z,33.90
2019-03-10T22:40:37.753Z,35.33
2019-03-10T22:43:07.575Z,35.87
2019-03-10T22:45:36.802Z,37.70
2019-03-10T22:48:05.489Z,35.13
2019-03-10T22:50:35.513Z,37.50
2019-03-10T22:53:04.322Z,41.67
2019-03-10T22:55:32.980Z,40.87
2019-03-10T22:58:03.052Z,35.07
2019-03-10T23:00:39.590Z,42.77
2019-03-10T23:03:08.543Z,32.63
2019-03-10T23:05:38.496Z,36.20
2019-03-10T23:08:07.364Z,39.27
2019-03-10T23:10:36.073Z,36.53
2019-03-10T23:13:05.119Z,32.70
2019-03-10T23:15:34.710Z,39.30
2019-03-10T23:18:03.591Z,36.67
2019-03-10T23:20:32.300Z,38.70
2019-03-10T23:23:01.043Z,36.73
2019-03-10T23:25:29.706Z,37.87
2019-03-10T23:27:58.634Z,39.83
2019-03-10T23:30:27.372Z,34.00
2019-03-10T23:32:56.057Z,33.47
2019-03-10T23:35:24.714Z,33.67
2019-03-10T23:37:53.636Z,35.13
2019-03-10T23:40:25.033Z,36.17
2019-03-10T23:42:53.632Z,36.17
2019-03-10T23:45:22.346Z,34.23
2019-03-10T23:47:51.007Z,31.43
2019-03-10T23:50:19.768Z,35.13
2019-03-10T23:52:48.571Z,35.87
2019-03-10T23:55:17.368Z,35.40
2019-03-10T23:57:46.579Z,39.90
